Time;durP1;ratioP1;P1;durP2;ratioP2;P2;SDS_P1;SDS_P2;PMS_P1;PMS_P2;Temp;Humidity;BMP_temperature;BMP_pressure;BME280_temperature;BME280_humidity;BME280_pressure;Samples;Min_cycle;Max_cycle;Signal;HPM_P1;HPM_P2
2022/03/05 00:00:02;;;;;;;7.50;4.30;;;2.50;99.90;;;;;;5024923;28;20233;-73
2022/03/05 00:02:58;;;;;;;13.77;4.50;;;2.50;99.90;;;;;;5040832;28;20232;-74
2022/03/05 00:05:48;;;;;;;11.63;4.60;;;2.50;99.90;;;;;;5039474;28;20268;-75
2022/03/05 00:08:36;;;;;;;8.50;3.90;;;2.50;99.90;;;;;;5026285;28;20240;-73
2022/03/05 00:11:25;;;;;;;8.17;4.50;;;2.40;99.90;;;;;;5028238;28;20244;-74
2022/03/05 00:14:18;;;;;;;9.33;4.23;;;2.40;99.90;;;;;;5035486;28;20213;-74
2022/03/05 00:17:07;;;;;;;8.50;4.27;;;2.30;99.90;;;;;;5026384;28;20218;-74
2022/03/05 00:19:56;;;;;;;7.07;3.83;;;2.30;99.90;;;;;;5036626;28;20236;-74
2022/03/05 00:22:45;;;;;;;6.40;3.50;;;2.30;99.90;;;;;;5025214;28;20224;-75
2022/03/05 00:25:38;;;;;;;7.50;3.30;;;2.40;99.90;;;;;;5023918;28;20282;-73
2022/03/05 00:28:26;;;;;;;7.53;3.40;;;2.30;99.90;;;;;;5036407;28;20249;-75
2022/03/05 00:31:17;;;;;;;6.07;2.83;;;2.40;99.90;;;;;;5025574;28;20227;-75
2022/03/05 00:34:07;;;;;;;4.43;2.50;;;2.40;99.90;;;;;;5032660;28;20224;-74
2022/03/05 00:36:56;;;;;;;4.77;1.83;;;2.40;99.20;;;;;;5037374;28;20220;-73
2022/03/05 00:39:45;;;;;;;2.87;1.70;;;2.50;95.20;;;;;;5032591;28;20648;-73
2022/03/05 00:42:33;;;;;;;3.33;1.90;;;2.50;87.60;;;;;;5023900;28;20456;-73
2022/03/05 00:45:22;;;;;;;5.13;2.10;;;2.50;89.50;;;;;;5032923;28;20232;-73
2022/03/05 00:48:14;;;;;;;3.97;1.97;;;2.60;96.20;;;;;;5021275;28;20270;-75
2022/03/05 00:51:04;;;;;;;4.50;2.07;;;2.60;91.00;;;;;;5034023;28;20297;-73
2022/03/05 00:53:53;;;;;;;4.47;2.30;;;2.70;93.00;;;;;;5034605;28;20235;-72
2022/03/05 00:56:41;;;;;;;4.87;2.43;;;2.70;91.50;;;;;;5024289;28;20333;-72
2022/03/05 00:59:30;;;;;;;4.80;2.50;;;2.70;92.90;;;;;;5040403;28;20228;-74
2022/03/05 01:02:19;;;;;;;4.17;2.60;;;2.80;99.30;;;;;;5037167;28;20629;-74
2022/03/05 01:05:10;;;;;;;3.03;2.27;;;2.60;92.20;;;;;;5026286;28;20290;-74
2022/03/05 01:07:59;;;;;;;4.40;2.60;;;2.80;95.60;;;;;;5039536;28;20224;-72
2022/03/05 01:10:48;;;;;;;3.80;2.40;;;2.70;95.20;;;;;;5024853;28;20221;-73
2022/03/05 01:13:37;;;;;;;5.17;2.77;;;2.70;94.30;;;;;;5038480;28;20296;-73
2022/03/05 01:16:26;;;;;;;4.30;2.33;;;2.70;92.70;;;;;;5024124;28;20224;-74
2022/03/05 01:19:15;;;;;;;5.37;2.70;;;2.60;99.90;;;;;;5039551;28;20217;-74
2022/03/05 01:22:05;;;;;;;6.00;2.83;;;2.60;99.90;;;;;;5040011;28;20208;-75
2022/03/05 01:24:53;;;;;;;4.97;2.90;;;2.70;96.00;;;;;;5036656;28;20222;-74
2022/03/05 01:27:42;;;;;;;5.20;2.67;;;2.80;99.90;;;;;;5034957;28;20243;-74
2022/03/05 01:30:34;;;;;;;7.93;3.30;;;2.60;95.20;;;;;;5024025;28;20224;-74
2022/03/05 01:33:23;;;;;;;7.20;3.17;;;2.60;97.20;;;;;;5042339;28;20251;-74
2022/03/05 01:36:12;;;;;;;5.17;3.03;;;2.60;97.80;;;;;;5040055;28;20216;-74
2022/03/05 01:39:03;;;;;;;6.57;3.63;;;2.70;99.90;;;;;;5035755;28;20608;-74
2022/03/05 01:41:55;;;;;;;6.17;3.27;;;2.70;99.90;;;;;;5040812;28;20221;-74
2022/03/05 01:44:47;;;;;;;7.07;3.20;;;2.80;99.90;;;;;;5026455;28;20248;-74
2022/03/05 01:47:37;;;;;;;6.97;3.30;;;2.80;99.90;;;;;;5029912;28;20684;-74
2022/03/05 01:50:27;;;;;;;7.20;3.30;;;2.80;99.90;;;;;;5024252;28;20904;-74
2022/03/05 01:53:16;;;;;;;4.83;2.80;;;2.80;99.90;;;;;;5026201;28;20212;-74
2022/03/05 01:56:06;;;;;;;5.27;2.87;;;2.80;99.90;;;;;;5036873;28;20285;-74
2022/03/05 01:58:56;;;;;;;5.07;2.67;;;2.60;99.90;;;;;;5035590;28;20244;-74
2022/03/05 02:01:45;;;;;;;6.03;2.87;;;2.70;99.90;;;;;;5035053;28;20301;-74
2022/03/05 02:04:34;;;;;;;4.80;3.00;;;2.80;99.90;;;;;;5039379;28;20240;-74
2022/03/05 02:07:24;;;;;;;6.40;3.30;;;2.60;99.90;;;;;;5026379;28;20359;-74
2022/03/05 02:10:13;;;;;;;5.23;2.63;;;2.50;99.90;;;;;;5027304;28;20872;-75
2022/03/05 02:13:03;;;;;;;6.33;3.00;;;2.50;99.90;;;;;;5025706;28;20236;-75
2022/03/05 02:15:54;;;;;;;5.23;2.80;;;2.50;99.90;;;;;;5023634;28;20221;-74
2022/03/05 02:18:45;;;;;;;4.93;3.00;;;2.40;99.90;;;;;;5023916;28;20877;-75
2022/03/05 02:21:37;;;;;;;5.00;2.47;;;2.50;99.90;;;;;;5040329;28;20225;-74
2022/03/05 02:24:32;;;;;;;4.43;2.67;;;2.40;99.90;;;;;;5038811;28;20217;-73
2022/03/05 02:27:23;;;;;;;5.57;3.07;;;2.40;99.90;;;;;;5036293;28;20221;-75
2022/03/05 02:30:14;;;;;;;3.90;2.53;;;2.50;99.90;;;;;;5040528;28;20214;-75
2022/03/05 02:33:03;;;;;;;5.27;2.73;;;2.60;99.90;;;;;;5039421;28;20315;-74
2022/03/05 02:35:52;;;;;;;4.37;2.73;;;2.60;99.90;;;;;;5025027;28;20217;-74
2022/03/05 02:38:42;;;;;;;4.37;3.07;;;2.50;99.90;;;;;;5047169;28;20509;-73
2022/03/05 02:41:30;;;;;;;5.10;2.80;;;2.50;99.90;;;;;;5036541;28;20748;-75
2022/03/05 02:44:19;;;;;;;4.50;3.00;;;2.50;99.90;;;;;;5026800;28;20225;-75
2022/03/05 02:47:07;;;;;;;5.87;2.83;;;2.60;99.90;;;;;;5035642;28;20236;-75
2022/03/05 02:49:56;;;;;;;6.07;2.47;;;2.50;99.90;;;;;;5022079;28;20228;-75
2022/03/05 02:52:45;;;;;;;4.33;2.80;;;2.50;99.90;;;;;;5035248;28;20221;-74
2022/03/05 02:55:35;;;;;;;5.87;2.83;;;2.40;99.90;;;;;;5023595;28;20251;-74
2022/03/05 02:58:24;;;;;;;4.50;2.77;;;2.30;99.90;;;;;;5026088;28;20266;-74
2022/03/05 03:01:13;;;;;;;7.57;3.20;;;2.20;99.90;;;;;;5026787;28;20316;-75
2022/03/05 03:04:02;;;;;;;5.97;3.33;;;2.30;99.90;;;;;;5024089;28;20217;-75
2022/03/05 03:06:51;;;;;;;6.23;3.40;;;2.20;99.90;;;;;;5032402;28;20233;-74
2022/03/05 03:09:40;;;;;;;6.67;3.53;;;2.30;99.90;;;;;;5035928;28;20286;-74
2022/03/05 03:12:31;;;;;;;4.07;3.10;;;2.40;99.90;;;;;;5042271;28;20252;-74
2022/03/05 03:15:19;;;;;;;5.97;3.47;;;2.40;99.90;;;;;;5036791;28;20569;-74
2022/03/05 03:18:08;;;;;;;7.07;3.33;;;2.30;99.90;;;;;;5025012;28;20225;-74
2022/03/05 03:20:57;;;;;;;7.47;3.23;;;2.30;99.90;;;;;;5036171;28;20876;-74
2022/03/05 03:23:45;;;;;;;5.13;3.20;;;2.20;99.90;;;;;;5022846;28;20326;-74
2022/03/05 03:26:34;;;;;;;7.03;3.60;;;2.20;99.90;;;;;;5027300;28;20220;-74
2022/03/05 03:29:24;;;;;;;5.87;3.40;;;2.30;99.90;;;;;;5026543;28;20236;-75
2022/03/05 03:32:12;;;;;;;7.13;3.43;;;2.20;99.90;;;;;;5026331;28;20229;-76
2022/03/05 03:35:01;;;;;;;5.43;3.10;;;2.20;99.90;;;;;;5041640;28;20851;-75
2022/03/05 03:37:51;;;;;;;6.53;3.30;;;2.20;99.90;;;;;;5036260;28;20748;-74
2022/03/05 03:40:40;;;;;;;5.33;3.03;;;2.20;99.90;;;;;;5039332;28;20217;-74
2022/03/05 03:43:29;;;;;;;6.27;3.53;;;2.30;99.90;;;;;;5040384;28;20227;-75
2022/03/05 03:46:19;;;;;;;6.07;3.17;;;2.40;99.90;;;;;;5025951;28;20899;-75
2022/03/05 03:49:07;;;;;;;5.50;3.30;;;2.10;99.90;;;;;;5036124;28;20792;-74
2022/03/05 03:51:56;;;;;;;5.97;3.27;;;2.20;99.90;;;;;;5022334;28;20228;-74
2022/03/05 03:54:46;;;;;;;6.20;3.27;;;2.20;99.90;;;;;;5024029;28;20752;-74
2022/03/05 03:57:35;;;;;;;5.80;3.40;;;2.20;99.90;;;;;;5037508;28;20283;-74
2022/03/05 04:00:25;;;;;;;7.03;3.43;;;2.10;99.90;;;;;;5023390;28;20252;-74
2022/03/05 04:03:15;;;;;;;5.33;3.07;;;2.00;99.90;;;;;;5021924;28;20217;-75
2022/03/05 04:06:05;;;;;;;6.47;3.60;;;2.10;99.90;;;;;;5021208;28;20626;-75
2022/03/05 04:08:52;;;;;;;6.60;3.10;;;2.10;99.90;;;;;;5025974;28;20244;-74
2022/03/05 04:11:41;;;;;;;5.73;3.57;;;2.10;99.90;;;;;;5024316;28;20244;-74
2022/03/05 04:14:30;;;;;;;5.53;3.13;;;2.20;99.90;;;;;;5036659;28;20293;-74
2022/03/05 04:17:18;;;;;;;5.87;3.43;;;2.20;99.90;;;;;;5021213;28;20217;-75
2022/03/05 04:20:10;;;;;;;6.37;3.10;;;2.20;99.90;;;;;;5039457;28;20232;-75
2022/03/05 04:22:59;;;;;;;5.37;3.10;;;2.10;99.90;;;;;;5019195;28;20278;-74
2022/03/05 04:25:48;;;;;;;5.33;3.20;;;2.10;99.90;;;;;;5019503;28;20409;-74
2022/03/05 04:28:36;;;;;;;6.60;3.47;;;2.10;99.90;;;;;;5035837;28;20225;-76
2022/03/05 04:31:25;;;;;;;4.00;2.63;;;2.00;99.90;;;;;;5023518;28;20227;-74
2022/03/05 04:34:14;;;;;;;6.93;3.37;;;2.00;99.90;;;;;;5026740;28;20362;-74
2022/03/05 04:37:04;;;;;;;6.20;3.33;;;2.00;99.90;;;;;;5025735;28;20547;-72
2022/03/05 04:39:53;;;;;;;5.00;3.27;;;2.10;99.90;;;;;;5023362;28;20244;-73
2022/03/05 04:42:42;;;;;;;6.83;3.67;;;1.90;99.90;;;;;;5021814;28;20233;-73
2022/03/05 04:45:31;;;;;;;7.47;3.67;;;1.80;99.90;;;;;;5038251;28;20217;-73
2022/03/05 04:48:19;;;;;;;4.97;3.13;;;1.80;99.90;;;;;;5024815;28;20233;-74
2022/03/05 04:51:08;;;;;;;5.40;3.37;;;1.80;99.90;;;;;;5029172;28;20232;-73
2022/03/05 04:53:58;;;;;;;5.80;3.50;;;1.90;99.90;;;;;;5021144;28;20213;-75
2022/03/05 04:56:47;;;;;;;5.23;3.20;;;2.00;99.90;;;;;;5027299;28;20225;-73
2022/03/05 04:59:36;;;;;;;8.27;3.33;;;2.00;99.90;;;;;;5034524;28;20243;-73
2022/03/05 05:02:24;;;;;;;5.67;3.10;;;2.00;99.90;;;;;;5035374;28;20244;-74
2022/03/05 05:05:14;;;;;;;5.83;3.00;;;1.80;99.90;;;;;;5022885;28;20286;-74
2022/03/05 05:08:03;;;;;;;4.83;3.10;;;1.80;99.90;;;;;;5024021;28;20237;-73
2022/03/05 05:10:53;;;;;;;4.77;3.40;;;1.70;99.90;;;;;;5024272;28;20221;-72
2022/03/05 05:13:42;;;;;;;6.40;3.60;;;1.80;99.90;;;;;;5040748;28;20229;-71
2022/03/05 05:16:31;;;;;;;5.10;3.53;;;1.80;99.90;;;;;;5020940;28;20224;-70
2022/03/05 05:19:27;;;;;;;5.80;3.60;;;1.80;99.90;;;;;;5025124;28;20245;-73
2022/03/05 05:22:16;;;;;;;6.17;3.60;;;1.80;99.90;;;;;;5021812;28;20315;-73
2022/03/05 05:25:06;;;;;;;7.17;3.43;;;1.80;99.90;;;;;;5041101;28;20239;-70
2022/03/05 05:27:56;;;;;;;6.77;3.83;;;1.80;99.90;;;;;;5023728;28;20226;-72
2022/03/05 05:30:45;;;;;;;6.83;4.13;;;1.80;99.90;;;;;;5036098;28;20228;-72
2022/03/05 05:33:34;;;;;;;7.10;4.00;;;1.80;99.90;;;;;;5023862;28;20217;-71
2022/03/05 05:36:22;;;;;;;6.93;4.07;;;1.80;99.90;;;;;;5037521;28;20220;-74
2022/03/05 05:39:12;;;;;;;9.03;4.13;;;1.80;99.90;;;;;;5021076;28;20270;-75
2022/03/05 05:42:01;;;;;;;6.97;4.03;;;1.80;99.90;;;;;;5039860;28;26133;-73
2022/03/05 05:44:51;;;;;;;10.50;4.03;;;1.70;99.90;;;;;;5018194;28;20225;-74
2022/03/05 05:47:39;;;;;;;7.97;4.27;;;1.60;99.90;;;;;;5020781;28;20247;-71
2022/03/05 05:50:28;;;;;;;7.63;4.50;;;1.70;99.90;;;;;;5038449;28;21184;-73
2022/03/05 05:53:17;;;;;;;7.40;4.70;;;1.70;99.90;;;;;;5013820;28;20283;-73
2022/03/05 05:56:06;;;;;;;7.67;4.63;;;1.70;99.90;;;;;;5001873;28;20218;-73
2022/03/05 05:58:55;;;;;;;7.70;4.20;;;1.70;99.90;;;;;;5001118;28;20256;-74
2022/03/05 06:01:49;;;;;;;7.20;4.20;;;1.80;99.90;;;;;;5011192;28;20397;-75
2022/03/05 06:04:38;;;;;;;7.63;4.57;;;1.80;99.90;;;;;;5018606;28;20753;-74
2022/03/05 06:07:26;;;;;;;11.17;5.00;;;1.70;99.90;;;;;;5015433;28;20226;-74
2022/03/05 06:10:15;;;;;;;8.07;4.30;;;1.70;99.90;;;;;;5002951;28;20233;-74
2022/03/05 06:13:04;;;;;;;8.53;3.93;;;1.60;99.90;;;;;;5001505;28;20712;-75
2022/03/05 06:15:52;;;;;;;8.57;4.70;;;1.70;99.90;;;;;;5002641;28;20222;-74
2022/03/05 06:18:42;;;;;;;8.33;4.73;;;1.70;99.90;;;;;;5021571;28;20221;-74
2022/03/05 06:21:31;;;;;;;8.33;4.53;;;1.80;99.90;;;;;;5005477;28;20217;-74
2022/03/05 06:24:24;;;;;;;10.37;4.83;;;1.80;99.90;;;;;;5007841;28;20879;-74
2022/03/05 06:27:12;;;;;;;9.73;5.43;;;1.80;99.90;;;;;;5002470;28;20727;-74
2022/03/05 06:30:01;;;;;;;10.23;5.53;;;1.70;99.90;;;;;;5020528;28;20229;-73
2022/03/05 06:32:50;;;;;;;15.93;6.80;;;1.80;99.90;;;;;;5020496;28;20619;-74
2022/03/05 06:35:40;;;;;;;11.47;6.50;;;1.80;99.90;;;;;;5008388;28;20263;-73
2022/03/05 06:38:28;;;;;;;11.40;5.30;;;1.80;99.90;;;;;;5006028;28;20221;-75
2022/03/05 06:41:17;;;;;;;8.07;5.13;;;1.80;99.90;;;;;;5006992;28;20240;-74
2022/03/05 06:44:06;;;;;;;10.50;5.23;;;1.80;99.90;;;;;;5013486;28;20233;-73
2022/03/05 06:46:56;;;;;;;9.80;5.37;;;1.80;99.90;;;;;;5019568;28;20222;-75
2022/03/05 06:49:45;;;;;;;11.13;4.97;;;2.00;99.90;;;;;;5023201;28;20267;-75
2022/03/05 06:52:35;;;;;;;8.50;5.37;;;2.00;99.90;;;;;;5020032;28;20605;-75
2022/03/05 06:55:24;;;;;;;8.17;5.20;;;1.90;99.90;;;;;;5023308;28;20569;-73
2022/03/05 06:58:14;;;;;;;13.17;5.10;;;2.10;99.90;;;;;;5022307;28;20229;-75
2022/03/05 07:01:04;;;;;;;9.60;4.50;;;2.10;99.90;;;;;;5022210;28;20226;-74
2022/03/05 07:03:56;;;;;;;9.57;4.90;;;2.10;99.90;;;;;;5021579;28;20221;-74
2022/03/05 07:06:44;;;;;;;10.57;5.57;;;2.10;99.90;;;;;;5007982;28;20325;-74
2022/03/05 07:09:38;;;;;;;7.13;4.77;;;2.30;99.90;;;;;;5005999;28;20232;-76
2022/03/05 07:12:27;;;;;;;14.73;5.37;;;2.30;99.90;;;;;;5009690;28;20305;-74
2022/03/05 07:15:20;;;;;;;10.80;5.80;;;2.30;99.90;;;;;;5024074;28;21015;-77
2022/03/05 07:18:09;;;;;;;9.73;4.93;;;2.30;99.90;;;;;;5010031;28;21218;-75
2022/03/05 07:20:58;;;;;;;11.27;5.23;;;2.40;99.90;;;;;;5023354;28;20719;-73
2022/03/05 07:23:47;;;;;;;8.33;5.13;;;2.50;99.90;;;;;;5018738;28;20241;-75
2022/03/05 07:26:37;;;;;;;7.43;4.80;;;2.50;99.90;;;;;;5023169;28;20566;-75
2022/03/05 07:29:25;;;;;;;9.30;5.67;;;2.50;99.90;;;;;;5009151;28;20218;-75
2022/03/05 07:32:15;;;;;;;9.40;4.50;;;2.30;99.90;;;;;;4999618;28;20214;-76
2022/03/05 07:35:04;;;;;;;9.03;5.20;;;2.30;99.90;;;;;;5004295;28;20414;-77
2022/03/05 07:37:53;;;;;;;8.97;4.80;;;2.40;99.90;;;;;;5019867;28;20225;-74
2022/03/05 07:40:41;;;;;;;10.07;5.00;;;2.50;99.90;;;;;;5020022;28;20236;-75
2022/03/05 07:43:31;;;;;;;8.97;5.37;;;2.60;99.90;;;;;;5022639;28;20218;-74
2022/03/05 07:46:20;;;;;;;8.93;5.37;;;2.50;99.90;;;;;;5019856;28;20217;-76
2022/03/05 07:49:09;;;;;;;10.63;4.93;;;2.60;99.90;;;;;;5006568;28;20229;-73
2022/03/05 07:51:57;;;;;;;9.43;5.60;;;2.80;99.90;;;;;;5019594;28;20244;-74
2022/03/05 07:54:46;;;;;;;8.03;4.80;;;2.90;99.90;;;;;;5051045;28;20229;-74
2022/03/05 07:57:35;;;;;;;8.07;4.90;;;2.90;99.90;;;;;;5037672;28;20236;-75
2022/03/05 08:00:25;;;;;;;8.33;5.00;;;2.60;99.90;;;;;;5039162;28;20229;-76
2022/03/05 08:03:14;;;;;;;8.87;5.17;;;2.90;99.90;;;;;;5040431;28;20311;-75
2022/03/05 08:06:03;;;;;;;12.37;7.47;;;2.90;99.90;;;;;;5038334;28;20224;-74
2022/03/05 08:08:52;;;;;;;8.73;5.20;;;2.90;99.90;;;;;;5038443;28;20225;-74
2022/03/05 08:11:41;;;;;;;8.50;5.37;;;2.70;99.90;;;;;;5037439;28;20217;-74
2022/03/05 08:14:35;;;;;;;7.23;4.60;;;2.90;99.90;;;;;;5035874;28;20221;-71
2022/03/05 08:17:28;;;;;;;7.80;4.67;;;3.00;99.90;;;;;;5037625;28;20229;-70
2022/03/05 08:20:17;;;;;;;11.53;5.73;;;3.10;99.90;;;;;;5047382;28;20218;-73
2022/03/05 08:23:06;;;;;;;10.53;6.20;;;3.00;99.90;;;;;;5034338;28;20260;-76
2022/03/05 08:25:55;;;;;;;11.33;6.30;;;3.10;99.90;;;;;;5039453;28;20217;-76
2022/03/05 08:28:45;;;;;;;7.60;4.67;;;3.10;99.90;;;;;;5037498;28;20353;-75
2022/03/05 08:31:33;;;;;;;7.47;4.37;;;2.90;99.90;;;;;;5035023;28;20228;-75
2022/03/05 08:34:23;;;;;;;7.17;4.20;;;3.10;99.90;;;;;;5034425;28;20237;-75
2022/03/05 08:37:12;;;;;;;7.43;4.40;;;2.70;99.90;;;;;;5032476;28;20569;-75
2022/03/05 08:40:01;;;;;;;6.10;4.07;;;3.10;99.90;;;;;;5035662;28;20221;-75
2022/03/05 08:42:49;;;;;;;6.90;3.97;;;3.20;99.90;;;;;;5049880;28;20295;-74
2022/03/05 08:45:39;;;;;;;7.47;4.40;;;3.20;99.90;;;;;;5039596;28;20219;-76
2022/03/05 08:48:28;;;;;;;6.30;4.50;;;3.10;99.90;;;;;;5035346;28;20231;-75
2022/03/05 08:51:18;;;;;;;7.23;3.87;;;3.10;99.90;;;;;;5035379;28;20218;-74
2022/03/05 08:54:06;;;;;;;7.00;4.13;;;3.20;99.90;;;;;;5037069;28;20237;-75
2022/03/05 08:56:55;;;;;;;6.20;4.17;;;3.40;99.90;;;;;;5035203;28;20230;-74
2022/03/05 08:59:44;;;;;;;7.40;4.27;;;3.30;99.90;;;;;;5039873;28;20264;-74
2022/03/05 09:02:33;;;;;;;8.67;3.80;;;3.40;99.90;;;;;;5039650;28;20225;-75
2022/03/05 09:05:22;;;;;;;4.63;3.47;;;3.50;99.90;;;;;;5036449;28;20320;-76
2022/03/05 09:08:12;;;;;;;8.33;4.23;;;3.50;99.90;;;;;;5038296;28;20313;-75
2022/03/05 09:11:00;;;;;;;5.77;3.90;;;3.90;99.90;;;;;;5038884;28;20640;-75
2022/03/05 09:13:50;;;;;;;10.23;5.97;;;3.70;98.90;;;;;;5038498;28;20270;-76
2022/03/05 09:16:40;;;;;;;10.43;5.07;;;3.80;96.70;;;;;;5049662;28;20271;-76
2022/03/05 09:19:29;;;;;;;4.43;2.90;;;3.50;92.90;;;;;;5031745;28;20234;-75
2022/03/05 09:22:17;;;;;;;3.97;2.67;;;3.70;92.80;;;;;;5033104;28;20231;-75
2022/03/05 09:25:09;;;;;;;4.87;2.80;;;3.50;91.50;;;;;;5034281;28;20227;-76
2022/03/05 09:27:59;;;;;;;4.90;3.10;;;3.60;92.60;;;;;;5035551;28;20750;-76
2022/03/05 09:30:48;;;;;;;6.37;3.30;;;3.50;91.40;;;;;;5034327;28;20287;-76
2022/03/05 09:33:37;;;;;;;5.50;3.83;;;3.40;93.70;;;;;;5037165;28;20317;-75
2022/03/05 09:36:26;;;;;;;5.43;3.20;;;3.40;96.40;;;;;;5035958;28;20362;-75
2022/03/05 09:39:15;;;;;;;7.10;3.83;;;3.30;93.00;;;;;;5039468;28;20227;-75
2022/03/05 09:42:06;;;;;;;6.07;3.70;;;3.40;95.60;;;;;;5038234;28;20227;-75
2022/03/05 09:44:55;;;;;;;7.20;4.27;;;3.50;95.10;;;;;;5039725;28;20696;-75
2022/03/05 09:47:49;;;;;;;7.43;4.00;;;3.40;94.60;;;;;;5036167;28;20712;-74
2022/03/05 09:50:38;;;;;;;8.23;4.30;;;3.40;98.50;;;;;;5038266;28;20239;-75
2022/03/05 09:53:28;;;;;;;8.03;4.47;;;3.30;99.90;;;;;;5019350;28;20223;-75
2022/03/05 09:56:17;;;;;;;6.63;4.47;;;3.20;97.10;;;;;;5006179;28;20224;-76
2022/03/05 09:59:10;;;;;;;5.97;4.03;;;3.20;96.90;;;;;;5024155;28;20256;-73
2022/03/05 10:01:59;;;;;;;5.43;3.73;;;3.10;97.30;;;;;;5015735;28;20649;-75
2022/03/05 10:04:48;;;;;;;4.87;3.47;;;2.90;95.90;;;;;;5013258;28;20313;-75
2022/03/05 10:07:37;;;;;;;6.03;3.73;;;3.10;94.80;;;;;;5013291;28;20317;-82
2022/03/05 10:10:25;;;;;;;4.87;3.00;;;3.10;93.60;;;;;;5001644;28;20226;-77
2022/03/05 10:13:25;;;;;;;5.33;3.30;;;3.00;91.30;;;;;;5009308;28;20305;-80
2022/03/05 10:16:29;;;;;;;6.00;3.40;;;3.00;90.40;;;;;;5024313;28;21016;-81
2022/03/05 10:19:20;;;;;;;5.40;3.30;;;3.10;90.90;;;;;;5006738;28;20227;-81
2022/03/05 10:22:09;;;;;;;6.33;3.13;;;3.00;90.70;;;;;;5009900;28;20221;-81
2022/03/05 10:24:58;;;;;;;4.57;3.10;;;3.10;90.60;;;;;;5021680;28;20220;-82
2022/03/05 10:27:47;;;;;;;6.70;3.80;;;3.10;88.70;;;;;;5009766;28;20237;-80
2022/03/05 10:30:37;;;;;;;5.77;3.40;;;3.10;87.30;;;;;;5011318;28;20232;-80
2022/03/05 10:33:30;;;;;;;5.20;3.53;;;3.20;88.40;;;;;;5008830;28;20293;-81
2022/03/05 10:36:21;;;;;;;6.17;3.80;;;3.20;88.00;;;;;;5021408;28;20221;-80
2022/03/05 10:39:10;;;;;;;6.13;3.80;;;3.30;89.50;;;;;;5010242;28;20227;-81
2022/03/05 10:41:59;;;;;;;11.63;5.77;;;3.40;89.80;;;;;;5008660;28;20240;-81
2022/03/05 10:45:00;;;;;;;15.93;7.47;;;3.50;90.40;;;;;;5010558;28;20317;-81
2022/03/05 10:47:49;;;;;;;7.07;4.17;;;3.20;89.40;;;;;;4994884;28;20223;-81
2022/03/05 10:50:39;;;;;;;6.70;3.57;;;3.00;90.10;;;;;;5010357;28;20226;-79
2022/03/05 10:53:40;;;;;;;6.73;3.60;;;3.10;90.40;;;;;;5029590;28;20249;-81
2022/03/05 10:56:32;;;;;;;5.97;3.53;;;3.10;90.40;;;;;;5043177;28;20228;-81
2022/03/05 10:59:22;;;;;;;9.70;3.83;;;3.30;91.40;;;;;;5031727;28;20241;-81
2022/03/05 11:02:13;;;;;;;6.27;3.77;;;3.30;89.90;;;;;;5029518;28;20224;-80
2022/03/05 11:05:03;;;;;;;6.17;3.17;;;3.10;90.00;;;;;;5048769;28;20316;-82
2022/03/05 11:07:55;;;;;;;4.33;2.97;;;3.00;88.60;;;;;;5025948;28;20224;-81
2022/03/05 11:10:44;;;;;;;4.43;2.73;;;3.00;87.90;;;;;;5026496;28;20712;-81
2022/03/05 11:13:33;;;;;;;6.77;2.67;;;3.20;86.00;;;;;;5044537;28;20213;-80
2022/03/05 11:16:22;;;;;;;4.27;2.70;;;3.20;83.60;;;;;;5032884;28;20217;-81
2022/03/05 11:19:12;;;;;;;7.70;3.20;;;3.30;85.30;;;;;;5037031;28;20680;-82
2022/03/05 11:22:00;;;;;;;7.13;3.03;;;3.40;84.60;;;;;;5023409;28;20919;-81
2022/03/05 11:24:50;;;;;;;3.83;2.57;;;3.30;82.90;;;;;;5040503;28;20225;-81
2022/03/05 11:27:39;;;;;;;7.13;3.40;;;3.10;84.30;;;;;;5042042;28;20881;-80
2022/03/05 11:30:29;;;;;;;5.13;2.97;;;2.90;84.50;;;;;;5021674;28;20237;-83
2022/03/05 11:33:23;;;;;;;5.20;3.07;;;3.00;85.30;;;;;;5025001;28;20964;-81
2022/03/05 11:36:31;;;;;;;8.50;3.50;;;3.20;84.70;;;;;;5030906;28;20225;-82
2022/03/05 11:39:22;;;;;;;6.53;4.23;;;3.10;83.50;;;;;;5023589;28;20225;-81
2022/03/05 11:42:26;;;;;;;6.97;3.20;;;3.20;83.00;;;;;;5036411;28;20225;-82
2022/03/05 11:45:30;;;;;;;8.33;3.50;;;3.20;83.30;;;;;;5028827;28;20241;-81
2022/03/05 11:48:30;;;;;;;9.90;3.20;;;3.30;83.30;;;;;;5027674;28;20225;-81
2022/03/05 11:51:23;;;;;;;5.77;3.00;;;3.50;83.70;;;;;;5028052;28;20255;-83
2022/03/05 11:54:14;;;;;;;6.43;3.33;;;3.60;81.50;;;;;;5022691;28;20998;-81
2022/03/05 11:57:24;;;;;;;7.47;3.47;;;3.60;80.70;;;;;;5029411;28;20248;-81
2022/03/05 12:00:13;;;;;;;8.57;3.50;;;3.60;80.60;;;;;;5023256;28;20279;-81
2022/03/05 12:03:04;;;;;;;9.17;5.00;;;3.40;81.00;;;;;;5026230;28;20349;-81
2022/03/05 12:05:54;;;;;;;4.73;2.97;;;3.50;80.40;;;;;;5024591;28;20218;-81
2022/03/05 12:08:53;;;;;;;4.87;2.90;;;3.40;79.50;;;;;;5027564;28;20229;-81
2022/03/05 12:11:55;;;;;;;5.43;2.80;;;3.40;79.50;;;;;;5026915;28;20230;-81
2022/03/05 12:15:14;;;;;;;6.80;3.10;;;3.30;78.70;;;;;;5010169;28;20545;-81
2022/03/05 12:18:05;;;;;;;5.47;2.70;;;3.50;78.40;;;;;;5024106;28;20223;-82
2022/03/05 12:20:54;;;;;;;5.77;2.90;;;3.50;78.00;;;;;;5032707;28;20211;-82
2022/03/05 12:23:42;;;;;;;4.43;2.93;;;3.80;79.00;;;;;;5033982;28;20225;-82
2022/03/05 12:26:39;;;;;;;4.67;2.60;;;3.90;77.80;;;;;;5025030;28;20223;-82
2022/03/05 12:29:29;;;;;;;5.00;2.70;;;3.70;77.20;;;;;;5029018;28;20226;-81
2022/03/05 12:32:21;;;;;;;5.47;2.90;;;3.60;76.80;;;;;;5042291;28;20272;-81
2022/03/05 12:35:10;;;;;;;5.87;3.10;;;3.80;77.70;;;;;;5021921;28;20234;-81
2022/03/05 12:37:59;;;;;;;5.77;3.00;;;3.90;77.00;;;;;;5026369;28;20247;-81
2022/03/05 12:40:49;;;;;;;6.93;3.37;;;3.50;77.20;;;;;;5024396;28;20267;-81
2022/03/05 12:43:43;;;;;;;3.83;2.80;;;3.60;77.50;;;;;;5043111;28;20219;-81
2022/03/05 12:46:31;;;;;;;5.00;3.13;;;3.40;77.90;;;;;;5026909;28;20373;-83
2022/03/05 12:49:21;;;;;;;4.80;3.00;;;3.60;78.50;;;;;;5038626;28;20330;-81
2022/03/05 12:52:17;;;;;;;3.90;2.77;;;3.50;77.30;;;;;;5042748;28;20218;-84
2022/03/05 12:55:06;;;;;;;3.77;2.83;;;3.50;77.60;;;;;;5042386;28;20726;-75
2022/03/05 12:58:04;;;;;;;5.03;3.00;;;3.70;78.40;;;;;;5039980;28;20218;-75
2022/03/05 13:00:54;;;;;;;5.00;2.90;;;3.50;76.80;;;;;;5038614;28;20216;-75
2022/03/05 13:03:43;;;;;;;5.80;2.70;;;3.40;77.30;;;;;;5038103;28;20229;-75
2022/03/05 13:06:33;;;;;;;5.20;3.17;;;3.50;78.40;;;;;;5034835;28;20232;-80
2022/03/05 13:09:22;;;;;;;4.33;2.97;;;3.80;78.00;;;;;;5034252;28;20607;-76
2022/03/05 13:12:19;;;;;;;5.27;2.90;;;3.70;77.40;;;;;;5033146;28;20340;-74
2022/03/05 13:15:09;;;;;;;5.17;3.60;;;3.80;78.10;;;;;;5021942;28;20228;-75
2022/03/05 13:18:10;;;;;;;4.93;3.40;;;3.90;76.50;;;;;;5022556;28;20237;-77
2022/03/05 13:21:01;;;;;;;7.97;3.97;;;3.70;75.80;;;;;;5024773;28;20224;-80
2022/03/05 13:23:52;;;;;;;5.67;3.40;;;3.40;75.90;;;;;;5038893;28;20222;-74
2022/03/05 13:26:44;;;;;;;5.33;3.40;;;3.60;77.50;;;;;;5021963;28;20260;-74
2022/03/05 13:29:33;;;;;;;7.20;3.40;;;3.60;76.50;;;;;;5042852;28;20218;-76
2022/03/05 13:32:25;;;;;;;7.80;5.13;;;3.70;76.20;;;;;;5042026;28;20223;-80
2022/03/05 13:35:15;;;;;;;6.20;3.80;;;3.90;76.30;;;;;;5030000;28;20362;-77
2022/03/05 13:38:04;;;;;;;6.10;3.83;;;3.50;76.10;;;;;;5033945;28;20230;-78
2022/03/05 13:40:54;;;;;;;6.70;3.50;;;3.70;76.90;;;;;;5038013;28;21019;-76
2022/03/05 13:43:43;;;;;;;6.03;3.50;;;3.80;75.90;;;;;;5025542;28;20833;-73
2022/03/05 13:46:32;;;;;;;6.53;3.50;;;3.80;77.10;;;;;;5025962;28;20378;-77
2022/03/05 13:49:22;;;;;;;7.47;3.70;;;3.80;76.00;;;;;;5040085;28;20307;-76
2022/03/05 13:52:18;;;;;;;7.77;3.80;;;3.80;75.30;;;;;;5033714;28;20243;-78
2022/03/05 13:55:09;;;;;;;8.67;3.70;;;3.90;75.10;;;;;;5041146;28;20247;-75
2022/03/05 13:57:59;;;;;;;6.17;3.70;;;3.80;75.10;;;;;;5039836;28;20267;-75
2022/03/05 14:00:52;;;;;;;7.87;3.60;;;3.90;74.70;;;;;;5032773;28;20354;-75
2022/03/05 14:03:42;;;;;;;7.53;3.47;;;3.80;75.30;;;;;;5044418;28;20228;-77
2022/03/05 14:06:54;;;;;;;5.33;3.40;;;3.70;75.00;;;;;;5027318;28;20856;-76
2022/03/05 14:09:46;;;;;;;4.23;3.60;;;3.40;75.00;;;;;;5027984;28;20365;-76
2022/03/05 14:12:36;;;;;;;6.23;3.60;;;3.50;75.80;;;;;;5029908;28;20540;-75
2022/03/05 14:15:28;;;;;;;5.53;3.60;;;3.50;75.50;;;;;;5030609;28;20231;-75
2022/03/05 14:18:17;;;;;;;5.70;3.27;;;3.40;76.50;;;;;;5034696;28;20775;-75
2022/03/05 14:21:17;;;;;;;8.47;3.70;;;3.50;76.00;;;;;;5021633;28;20222;-73
2022/03/05 14:24:06;;;;;;;5.20;3.07;;;3.40;76.10;;;;;;5013851;28;20225;-76
2022/03/05 14:26:56;;;;;;;6.73;3.60;;;3.40;76.10;;;;;;5027709;28;20225;-75
2022/03/05 14:29:45;;;;;;;5.17;3.53;;;3.40;75.90;;;;;;5039133;28;20228;-75
2022/03/05 14:32:35;;;;;;;10.97;5.93;;;3.60;76.60;;;;;;5039735;28;20590;-75
2022/03/05 14:35:25;;;;;;;10.23;4.40;;;3.60;75.70;;;;;;5041258;28;21035;-76
2022/03/05 14:38:14;;;;;;;5.47;3.67;;;3.70;76.40;;;;;;5042038;28;21157;-75
2022/03/05 14:41:03;;;;;;;7.63;3.73;;;3.60;75.10;;;;;;5032460;28;20229;-77
2022/03/05 14:43:52;;;;;;;8.27;4.20;;;3.60;75.50;;;;;;5022911;28;20213;-75
2022/03/05 14:46:41;;;;;;;6.37;3.73;;;3.70;75.60;;;;;;5027178;28;20223;-77
2022/03/05 14:49:31;;;;;;;7.07;3.80;;;3.70;74.80;;;;;;5028482;28;20232;-75
2022/03/05 14:52:22;;;;;;;6.73;4.00;;;3.50;74.90;;;;;;5028077;28;20232;-73
2022/03/05 14:55:12;;;;;;;6.43;3.47;;;3.60;75.50;;;;;;5039828;28;20316;-77